»·PEaware :: N889DH KRNO-KSFO

N889DH :: KRNO-KSFO

FLIGHT INFORMATION

Flight Status: Arrived
Operator: Privately registered:
United States
More flights under this callsign
Pilot: Tanner C. (11250)
Aircraft: PILATUS PC-12 EAGLE
(PC12)
More flights by this aircraft type
Origin: KRNO Reno/Tahoe Intl
United States
Destination: KSFO San Francisco Intl
United States
More flights between these airports :: More routes between these airports
Route: +RENO9 SWR MOD CEDES
File this flight plan on PilotEdge
Remarks:
Altitude:
(Current/Filed)
12,000ft
Speed:
(Current/Filed)
300kts
Departed: 01-Jan-18 03:50 PM
Arrived: 01-Jan-18 04:52 PM
Distance/Time
Traveled:
166nm/1:01
Distance/Time
To Go:
Arrived

Flight Plot

Page will automatically refresh every two minutes.

Flight plan parsing failed; only flown route is shown


Map Options




Map Legend


Flown Route
Filed Route
Departure Airport
Arrival Airport
Navaid (VOR, NDB)
Fix

Horizontal Profiles

Position Reports

Time Latitude Longitude Heading Altitude Ground
Speed
01-Jan-18 15:39 39.504913 -119.765314 90 4403ft 0kts
01-Jan-18 15:40 39.504913 -119.765314 90 4403ft 0kts
01-Jan-18 15:41 39.504913 -119.765314 90 4403ft 0kts
01-Jan-18 15:42 39.504913 -119.765314 90 4403ft 0kts
01-Jan-18 15:43 39.504913 -119.765313 90 4403ft 0kts
01-Jan-18 15:44 39.504913 -119.765314 90 4403ft 0kts
01-Jan-18 15:45 39.504913 -119.765314 90 4403ft 0kts
01-Jan-18 15:46 39.504913 -119.765314 90 4403ft 0kts
01-Jan-18 15:47 39.504913 -119.765313 90 4403ft 0kts
01-Jan-18 15:48 39.504913 -119.765313 90 4403ft 0kts
01-Jan-18 15:49 39.504913 -119.765313 90 4403ft 0kts
01-Jan-18 15:50 39.504913 -119.765313 90 4403ft 0kts
01-Jan-18 15:51 39.505215 -119.764919 358 4403ft 13kts
01-Jan-18 15:52 39.506719 -119.765240 259 4406ft 0kts
01-Jan-18 15:53 39.506719 -119.765240 259 4406ft 0kts
01-Jan-18 15:54 39.510215 -119.765771 359 4409ft 21kts
01-Jan-18 15:55 39.513668 -119.765354 303 4413ft 12kts
01-Jan-18 15:56 39.510502 -119.766730 180 4410ft 62kts
01-Jan-18 15:57 39.489343 -119.767022 178 5193ft 111kts
01-Jan-18 15:58 39.463575 -119.766528 177 6655ft 108kts
01-Jan-18 15:59 39.432004 -119.765313 177 7783ft 146kts
01-Jan-18 16:00 39.398466 -119.764105 177 9196ft 148kts
01-Jan-18 16:01 39.360780 -119.762749 177 10694ft 151kts
01-Jan-18 16:02 39.324544 -119.767094 223 12082ft 155kts
01-Jan-18 16:03 39.310547 -119.805993 253 13278ft 155kts
01-Jan-18 16:04 39.297657 -119.853437 251 13997ft 186kts
01-Jan-18 16:05 39.282256 -119.908817 249 13991ft 227kts
01-Jan-18 16:06 39.265241 -119.969149 249 13988ft 246kts
01-Jan-18 16:07 39.247119 -120.033162 250 13988ft 255kts
01-Jan-18 16:08 39.228811 -120.098837 249 13987ft 258kts
01-Jan-18 16:09 39.209840 -120.165835 250 13987ft 260kts
01-Jan-18 16:10 39.190593 -120.233771 250 13987ft 261kts
01-Jan-18 16:11 39.153795 -120.280825 202 13987ft 260kts
01-Jan-18 16:12 39.097415 -120.307278 199 13987ft 261kts
01-Jan-18 16:13 39.033683 -120.336106 199 13987ft 262kts
01-Jan-18 16:14 38.965785 -120.366735 199 14008ft 262kts
01-Jan-18 16:15 38.899028 -120.396764 199 14014ft 264kts
01-Jan-18 16:16 38.845352 -120.420737 199 14039ft 267kts
01-Jan-18 16:17 38.789773 -120.445723 200 14118ft 265kts
01-Jan-18 16:18 38.731903 -120.471519 202 14041ft 267kts
01-Jan-18 16:19 38.679467 -120.495232 201 14016ft 260kts
01-Jan-18 16:20 38.622989 -120.520459 200 14014ft 254kts
01-Jan-18 16:21 38.566321 -120.545651 200 14014ft 252kts
01-Jan-18 16:22 38.508975 -120.571160 200 14015ft 258kts
01-Jan-18 16:23 38.450106 -120.597300 200 14014ft 263kts
01-Jan-18 16:24 38.389817 -120.624038 200 14010ft 264kts
01-Jan-18 16:25 38.329780 -120.650613 200 13988ft 265kts
01-Jan-18 16:26 38.279573 -120.672855 199 13988ft 265kts
01-Jan-18 16:27 38.220325 -120.698855 200 13988ft 266kts
01-Jan-18 16:28 38.160162 -120.725409 200 13988ft 265kts
01-Jan-18 16:29 38.097284 -120.753057 200 13993ft 265kts
01-Jan-18 16:30 38.035323 -120.780251 200 13997ft 265kts
01-Jan-18 16:31 37.975177 -120.806590 200 13997ft 265kts
01-Jan-18 16:32 37.911494 -120.834435 200 13971ft 266kts
01-Jan-18 16:33 37.857022 -120.858209 200 13972ft 266kts
01-Jan-18 16:34 37.804830 -120.880956 199 13971ft 266kts
01-Jan-18 16:35 37.748244 -120.905576 199 13971ft 266kts
01-Jan-18 16:36 37.690999 -120.930454 199 13971ft 266kts
01-Jan-18 16:37 37.638199 -120.955288 215 13945ft 266kts
01-Jan-18 16:38 37.621088 -121.018899 259 13970ft 266kts
01-Jan-18 16:39 37.612572 -121.090795 260 13971ft 267kts
01-Jan-18 16:40 37.603864 -121.167385 260 13971ft 267kts
01-Jan-18 16:41 37.593412 -121.258983 260 13970ft 267kts
01-Jan-18 16:42 37.582861 -121.350764 260 13970ft 267kts
01-Jan-18 16:43 37.572323 -121.441809 260 13970ft 267kts
01-Jan-18 16:44 37.561695 -121.532607 260 13542ft 278kts
01-Jan-18 16:45 37.551123 -121.625681 266 12050ft 261kts
01-Jan-18 16:46 37.547300 -121.713323 263 9996ft 254kts
01-Jan-18 16:47 37.541058 -121.798287 263 8097ft 246kts
01-Jan-18 16:48 37.535550 -121.873583 263 7996ft 232kts
01-Jan-18 16:49 37.530247 -121.943899 263 7707ft 229kts
01-Jan-18 16:50 37.524564 -122.017099 263 6810ft 227kts
01-Jan-18 16:51 37.528021 -122.090028 282 5693ft 223kts
01-Jan-18 16:52 37.545247 -122.156714 290 4111ft 221kts
01-Jan-18 16:53 37.563041 -122.224774 282 2626ft 208kts
01-Jan-18 16:54 37.580179 -122.277724 298 1460ft 140kts
01-Jan-18 16:55 37.592495 -122.306792 303 1142ft 84kts
01-Jan-18 16:56 37.602700 -122.331197 299 505ft 79kts
01-Jan-18 16:57 37.612005 -122.353536 298 138ft 82kts
01-Jan-18 16:58 37.619302 -122.370940 298 15ft 38kts
01-Jan-18 16:59 37.624157 -122.381298 348 15ft 37kts
01-Jan-18 17:00 37.626418 -122.384176 297 15ft 15kts
01-Jan-18 17:01 37.627725 -122.384275 299 15ft 0kts

Navigation Log

Ident Type
Flight plan parsing failed, navigation log unavailable